createdAt,value
2018-02-22T00:01:11.400Z,58.28
2018-02-22T00:03:40.235Z,57.62
2018-02-22T00:06:08.688Z,56.92
2018-02-22T00:08:37.314Z,57.16
2018-02-22T00:11:05.780Z,57.36
2018-02-22T00:13:34.219Z,57.66
2018-02-22T00:16:03.176Z,57.61
2018-02-22T00:18:31.623Z,57.33
2018-02-22T00:21:00.080Z,58.20
2018-02-22T00:23:28.903Z,58.48
2018-02-22T00:25:57.339Z,58.08
2018-02-22T00:28:26.273Z,58.05
2018-02-22T00:30:55.614Z,56.95
2018-02-22T00:33:24.569Z,55.86
2018-02-22T00:35:53.007Z,56.40
2018-02-22T00:38:21.855Z,56.77
2018-02-22T00:40:50.328Z,56.80
2018-02-22T00:43:18.765Z,56.82
2018-02-22T00:45:47.612Z,56.70
2018-02-22T00:48:16.069Z,56.62
2018-02-22T00:50:44.641Z,57.97
2018-02-22T00:53:13.072Z,56.63
2018-02-22T00:55:41.616Z,57.17
2018-02-22T00:58:10.099Z,58.52
2018-02-22T01:00:38.541Z,58.23
2018-02-22T01:03:07.421Z,57.52
2018-02-22T01:05:35.892Z,59.51
2018-02-22T01:08:04.426Z,59.10
2018-02-22T01:10:32.860Z,57.57
2018-02-22T01:13:01.812Z,58.58
2018-02-22T01:15:30.244Z,57.16
2018-02-22T01:17:59.283Z,57.66
2018-02-22T01:20:27.736Z,58.51
2018-02-22T01:22:56.189Z,60.16
2018-02-22T01:25:25.264Z,60.71
2018-02-22T01:27:53.824Z,59.36
2018-02-22T01:30:22.348Z,60.60
2018-02-22T01:32:50.779Z,60.17
2018-02-22T01:35:19.236Z,60.32
2018-02-22T01:37:47.671Z,61.55
2018-02-22T01:40:16.119Z,60.84
2018-02-22T01:42:44.621Z,61.33
2018-02-22T01:45:13.084Z,61.12
2018-02-22T01:47:41.529Z,59.85
2018-02-22T01:50:10.380Z,59.47
2018-02-22T01:52:38.823Z,58.45
2018-02-22T01:55:07.444Z,59.84
2018-02-22T01:57:36.000Z,58.52
2018-02-22T02:00:04.444Z,57.55
2018-02-22T02:02:33.376Z,57.36
2018-02-22T02:05:01.877Z,56.92
2018-02-22T02:07:30.340Z,57.20
2018-02-22T02:09:58.808Z,57.16
2018-02-22T02:12:27.256Z,57.07
2018-02-22T02:14:56.120Z,56.10
2018-02-22T02:17:24.665Z,55.66
2018-02-22T02:19:53.872Z,56.54
2018-02-22T02:22:22.339Z,55.10
2018-02-22T02:24:50.774Z,56.23
2018-02-22T02:27:19.616Z,56.47
2018-02-22T02:29:48.076Z,57.57
2018-02-22T02:32:16.512Z,57.36
2018-02-22T02:34:45.009Z,57.33
2018-02-22T02:37:13.875Z,57.60
2018-02-22T02:39:42.311Z,56.89
2018-02-22T02:42:10.828Z,56.30
2018-02-22T02:44:39.388Z,56.62
2018-02-22T02:47:07.829Z,55.87
2018-02-22T02:49:36.677Z,54.78
2018-02-22T02:52:05.156Z,54.90
2018-02-22T02:54:33.620Z,55.03
2018-02-22T02:57:02.077Z,55.07
2018-02-22T02:59:30.917Z,56.18
2018-02-22T03:01:59.384Z,55.51
2018-02-22T03:04:27.820Z,54.62
2018-02-22T03:06:56.690Z,54.63
2018-02-22T03:09:25.135Z,55.14
2018-02-22T03:11:53.608Z,54.74
2018-02-22T03:14:22.068Z,54.24
2018-02-22T03:16:50.573Z,54.79
2018-02-22T03:19:19.036Z,53.40
2018-02-22T03:21:47.529Z,53.84
2018-02-22T03:24:15.970Z,54.08
2018-02-22T03:26:44.816Z,53.14
2018-02-22T03:29:13.292Z,52.55
2018-02-22T03:31:41.748Z,52.30
2018-02-22T03:34:10.180Z,52.47
2018-02-22T03:36:38.641Z,52.68
2018-02-22T03:39:07.081Z,54.33
2018-02-22T03:41:35.582Z,55.04
2018-02-22T03:44:04.035Z,54.67
2018-02-22T03:46:32.875Z,55.56
2018-02-22T03:49:01.344Z,54.93
2018-02-22T03:51:29.825Z,55.52
2018-02-22T03:53:58.400Z,55.99
2018-02-22T03:56:26.833Z,56.87
2018-02-22T03:58:55.269Z,56.45
2018-02-22T04:01:23.731Z,55.98
2018-02-22T04:03:52.175Z,55.74
2018-02-22T04:06:20.621Z,55.53
2018-02-22T04:08:49.066Z,55.30
2018-02-22T04:11:17.573Z,57.47
2018-02-22T04:13:46.007Z,57.56
2018-02-22T04:16:14.857Z,57.10
2018-02-22T04:18:56.256Z,56.92
2018-02-22T04:21:24.708Z,57.06
2018-02-22T04:23:53.155Z,57.25
2018-02-22T04:26:21.990Z,57.18
2018-02-22T04:28:50.457Z,56.75
2018-02-22T04:31:18.935Z,57.16
2018-02-22T04:33:47.424Z,56.86
2018-02-22T04:36:15.880Z,56.31
2018-02-22T04:38:44.361Z,56.13
2018-02-22T04:41:12.817Z,56.79
2018-02-22T04:43:41.652Z,56.16
2018-02-22T04:46:10.105Z,56.89
2018-02-22T04:48:38.543Z,56.49
2018-02-22T04:51:07.092Z,56.61
2018-02-22T04:53:36.297Z,55.90
2018-02-22T04:56:04.751Z,57.14
2018-02-22T04:58:33.184Z,56.74
2018-02-22T05:01:01.632Z,56.65
2018-02-22T05:03:30.080Z,57.08
2018-02-22T05:05:58.924Z,57.52
2018-02-22T05:08:27.382Z,58.21
2018-02-22T05:10:55.864Z,58.77
2018-02-22T05:13:24.300Z,59.75
2018-02-22T05:15:53.137Z,59.86
2018-02-22T05:18:21.578Z,61.36
2018-02-22T05:20:50.431Z,61.80
2018-02-22T05:23:18.900Z,62.11
2018-02-22T05:25:47.367Z,62.39
2018-02-22T05:28:15.844Z,61.03
2018-02-22T05:30:44.345Z,61.62
2018-02-22T05:33:12.791Z,61.74
2018-02-22T05:35:41.247Z,61.22
2018-02-22T05:38:10.088Z,59.54
2018-02-22T05:40:38.563Z,60.29
2018-02-22T05:43:07.007Z,59.74
2018-02-22T05:45:35.947Z,59.95
2018-02-22T05:48:04.426Z,59.29
2018-02-22T05:50:32.896Z,59.25
2018-02-22T05:53:01.378Z,59.81
2018-02-22T05:55:29.863Z,60.14
2018-02-22T05:57:58.305Z,59.63
2018-02-22T06:00:27.176Z,59.81
2018-02-22T06:02:55.630Z,59.86
2018-02-22T06:05:24.081Z,59.35
2018-02-22T06:07:52.529Z,58.90
2018-02-22T06:10:21.371Z,59.41
2018-02-22T06:12:49.947Z,59.53
2018-02-22T06:15:18.436Z,59.97
2018-02-22T06:17:47.013Z,59.88
2018-02-22T06:20:15.459Z,57.94
2018-02-22T06:22:43.904Z,57.95
2018-02-22T06:25:12.364Z,58.60
2018-02-22T06:27:40.796Z,58.35
2018-02-22T06:30:09.632Z,59.09
2018-02-22T06:32:38.072Z,58.79
2018-02-22T06:35:06.691Z,58.92
2018-02-22T06:37:35.144Z,58.89
2018-02-22T06:40:03.592Z,58.98
2018-02-22T06:42:32.163Z,57.77
2018-02-22T06:45:00.846Z,56.74
2018-02-22T06:47:29.398Z,56.72
2018-02-22T06:49:57.876Z,55.71
2018-02-22T06:52:26.376Z,51.52
2018-02-22T06:54:54.824Z,48.52
2018-02-22T06:57:23.325Z,46.53
2018-02-22T06:59:51.760Z,43.35
2018-02-22T07:02:20.592Z,44.72
2018-02-22T07:04:49.024Z,45.00
2018-02-22T07:07:17.546Z,44.45
2018-02-22T07:09:45.996Z,41.19
2018-02-22T07:12:14.877Z,38.66
